Time,TemperatureF,DewpointF,PressureIn,WindDirection,WindDirectionDegrees,WindSpeedMPH,WindSpeedGustMPH,Humidity,HourlyPrecipIn,Conditions,Clouds,dailyrainin,SoftwareType,DateUTC
2014-01-03 00:00:00,10.6,7.0,30.37,SSW,195,5.0,5.0,85,0.00,,,0.00,Wunderground v.1.15,2014-01-03 06:00:00,
2014-01-03 00:10:00,10.8,7.2,30.37,SSE,166,5.0,5.0,85,0.00,,,0.00,Wunderground v.1.15,2014-01-03 06:10:00,
2014-01-03 00:15:00,11.0,7.6,30.36,SSE,163,5.0,5.0,86,0.00,,,0.00,Wunderground v.1.15,2014-01-03 06:15:00,
2014-01-03 00:25:00,11.5,8.4,30.36,SSE,162,6.0,6.0,87,0.00,,,0.00,Wunderground v.1.15,2014-01-03 06:25:00,
2014-01-03 00:35:00,11.9,8.8,30.35,SW,226,5.0,6.0,87,0.00,,,0.00,Wunderground v.1.15,2014-01-03 06:35:00,
2014-01-03 00:45:00,12.1,9.0,30.34,South,177,5.0,9.0,87,0.00,,,0.00,Wunderground v.1.15,2014-01-03 06:45:00,
2014-01-03 00:55:00,12.3,9.2,30.33,SSE,156,7.0,8.0,87,0.00,,,0.00,Wunderground v.1.15,2014-01-03 06:55:00,
2014-01-03 01:05:00,12.4,9.3,30.32,SE,138,6.0,14.0,87,0.00,,,0.00,Wunderground v.1.15,2014-01-03 07:05:00,
2014-01-03 01:15:00,12.8,9.7,30.30,SE,138,6.0,14.0,87,0.00,,,0.00,Wunderground v.1.15,2014-01-03 07:15:00,
2014-01-03 01:25:00,13.2,10.1,30.30,SSW,205,6.0,14.0,87,0.00,,,0.00,Wunderground v.1.15,2014-01-03 07:25:00,
2014-01-03 01:35:00,13.5,10.4,30.30,South,174,6.0,14.0,87,0.00,,,0.00,Wunderground v.1.15,2014-01-03 07:35:00,
2014-01-03 01:45:00,13.7,10.5,30.30,WSW,238,4.0,7.0,87,0.00,,,0.00,Wunderground v.1.15,2014-01-03 07:45:00,
2014-01-03 01:55:00,13.9,10.7,30.29,SE,124,3.0,14.0,87,0.00,,,0.00,Wunderground v.1.15,2014-01-03 07:55:00,
2014-01-03 02:05:00,14.0,10.8,30.29,SW,236,4.0,14.0,87,0.00,,,0.00,Wunderground v.1.15,2014-01-03 08:05:00,
2014-01-03 02:15:00,14.1,10.9,30.29,SW,229,5.0,8.0,87,0.00,,,0.00,Wunderground v.1.15,2014-01-03 08:15:00,
2014-01-03 02:25:00,14.1,10.7,30.28,SSW,205,6.0,14.0,86,0.00,,,0.00,Wunderground v.1.15,2014-01-03 08:25:00,
2014-01-03 02:30:00,14.1,10.7,30.28,SE,131,4.0,4.0,86,0.00,,,0.00,Wunderground v.1.15,2014-01-03 08:30:00,
2014-01-03 02:35:00,14.1,10.7,30.28,SW,214,4.0,6.0,86,0.00,,,0.00,Wunderground v.1.15,2014-01-03 08:35:00,
2014-01-03 02:45:00,14.0,10.3,30.27,South,178,5.0,14.0,85,0.00,,,0.00,Wunderground v.1.15,2014-01-03 08:45:00,
2014-01-03 02:55:00,13.7,10.0,30.26,South,186,5.0,8.0,85,0.00,,,0.00,Wunderground v.1.15,2014-01-03 08:55:00,
2014-01-03 03:05:00,13.4,9.7,30.26,SE,125,6.0,14.0,85,0.00,,,0.00,Wunderground v.1.15,2014-01-03 09:05:00,
2014-01-03 03:15:00,13.2,9.5,30.25,SSW,202,7.0,14.0,85,0.00,,,0.00,Wunderground v.1.15,2014-01-03 09:15:00,
2014-01-03 03:25:00,12.9,9.2,30.24,SSW,198,6.0,14.0,85,0.00,,,0.00,Wunderground v.1.15,2014-01-03 09:25:00,
2014-01-03 03:30:00,12.8,9.4,30.24,SSE,165,6.0,6.0,86,0.00,,,0.00,Wunderground v.1.15,2014-01-03 09:30:00,
2014-01-03 03:35:00,12.6,8.9,30.24,SSE,160,5.0,8.0,85,0.00,,,0.00,Wunderground v.1.15,2014-01-03 09:35:00,
2014-01-03 03:45:00,12.5,9.1,30.23,SSE,150,6.0,14.0,86,0.00,,,0.00,Wunderground v.1.15,2014-01-03 09:45:00,
2014-01-03 03:55:00,12.6,9.2,30.22,SSW,203,6.0,8.0,86,0.00,,,0.00,Wunderground v.1.15,2014-01-03 09:55:00,
2014-01-03 04:05:00,12.6,9.2,30.21,SW,216,5.0,14.0,86,0.00,,,0.00,Wunderground v.1.15,2014-01-03 10:05:00,
2014-01-03 04:15:00,12.8,9.4,30.21,SSE,167,7.0,12.0,86,0.00,,,0.00,Wunderground v.1.15,2014-01-03 10:15:00,
2014-01-03 04:25:00,12.8,9.4,30.20,South,187,7.0,14.0,86,0.00,,,0.00,Wunderground v.1.15,2014-01-03 10:25:00,
2014-01-03 04:30:00,12.8,9.4,30.19,South,172,6.0,6.0,86,0.00,,,0.00,Wunderground v.1.15,2014-01-03 10:30:00,
2014-01-03 04:35:00,12.9,9.5,30.19,WNW,291,5.0,7.0,86,0.00,,,0.00,Wunderground v.1.15,2014-01-03 10:35:00,
2014-01-03 04:45:00,12.9,9.2,30.18,SW,214,8.0,14.0,85,0.00,,,0.00,Wunderground v.1.15,2014-01-03 10:45:00,
2014-01-03 04:55:00,12.9,9.5,30.17,South,176,7.0,11.0,86,0.00,,,0.00,Wunderground v.1.15,2014-01-03 10:55:00,
2014-01-03 05:05:00,12.9,9.5,30.16,SSE,156,7.0,9.0,86,0.00,,,0.00,Wunderground v.1.15,2014-01-03 11:05:00,
2014-01-03 05:15:00,12.8,9.1,30.14,SSE,158,8.0,8.0,85,0.00,,,0.00,Wunderground v.1.15,2014-01-03 11:15:00,
2014-01-03 05:25:00,12.8,9.4,30.13,South,176,7.0,14.0,86,0.00,,,0.00,Wunderground v.1.15,2014-01-03 11:25:00,
2014-01-03 05:30:00,12.7,9.3,30.13,SW,236,6.0,14.0,86,0.00,,,0.00,Wunderground v.1.15,2014-01-03 11:30:00,
2014-01-03 05:40:00,12.6,9.2,30.12,WSW,247,6.0,6.0,86,0.00,,,0.00,Wunderground v.1.15,2014-01-03 11:40:00,
2014-01-03 05:45:00,12.6,9.2,30.11,SSW,194,6.0,14.0,86,0.00,,,0.00,Wunderground v.1.15,2014-01-03 11:45:00,
2014-01-03 05:55:00,12.5,9.1,30.10,South,188,6.0,14.0,86,0.00,,,0.00,Wunderground v.1.15,2014-01-03 11:55:00,
2014-01-03 06:00:00,12.4,9.0,30.10,SSW,200,6.0,7.0,86,0.00,,,0.00,Wunderground v.1.15,2014-01-03 12:00:00,
2014-01-03 06:10:00,12.3,8.9,30.10,SSW,212,6.0,6.0,86,0.00,,,0.00,Wunderground v.1.15,2014-01-03 12:10:00,
2014-01-03 06:15:00,12.2,8.8,30.10,SSW,210,6.0,11.0,86,0.00,,,0.00,Wunderground v.1.15,2014-01-03 12:15:00,
2014-01-03 06:25:00,12.2,8.8,30.10,SSE,167,5.0,7.0,86,0.00,,,0.00,Wunderground v.1.15,2014-01-03 12:25:00,
2014-01-03 06:35:00,12.1,8.7,30.09,SSE,161,6.0,6.0,86,0.00,,,0.00,Wunderground v.1.15,2014-01-03 12:35:00,
2014-01-03 06:40:00,12.1,8.7,30.08,South,171,6.0,6.0,86,0.00,,,0.00,Wunderground v.1.15,2014-01-03 12:40:00,
2014-01-03 06:45:00,12.2,8.8,30.07,West,262,6.0,6.0,86,0.00,,,0.00,Wunderground v.1.15,2014-01-03 12:45:00,
2014-01-03 06:55:00,12.2,8.8,30.06,South,183,5.0,11.0,86,0.00,,,0.00,Wunderground v.1.15,2014-01-03 12:55:00,
2014-01-03 07:05:00,12.3,8.9,30.05,South,186,5.0,7.0,86,0.00,,,0.00,Wunderground v.1.15,2014-01-03 13:05:00,
2014-01-03 07:15:00,12.4,9.0,30.05,WSW,252,8.0,16.0,86,0.00,,,0.00,Wunderground v.1.15,2014-01-03 13:15:00,
2014-01-03 07:25:00,12.6,9.5,30.05,South,179,6.0,16.0,87,0.00,,,0.00,Wunderground v.1.15,2014-01-03 13:25:00,
2014-01-03 07:35:00,12.8,9.7,30.04,SW,231,6.0,16.0,87,0.00,,,0.00,Wunderground v.1.15,2014-01-03 13:35:00,
2014-01-03 07:40:00,12.9,9.8,30.04,SW,214,6.0,16.0,87,0.00,,,0.00,Wunderground v.1.15,2014-01-03 13:40:00,
2014-01-03 07:45:00,13.0,9.9,30.04,SSW,202,7.0,16.0,87,0.00,,,0.00,Wunderground v.1.15,2014-01-03 13:45:00,
2014-01-03 07:55:00,13.2,10.1,30.02,SW,232,7.0,11.0,87,0.00,,,0.00,Wunderground v.1.15,2014-01-03 13:55:00,
2014-01-03 08:05:00,13.4,10.3,30.02,SSE,160,6.0,16.0,87,0.00,,,0.00,Wunderground v.1.15,2014-01-03 14:05:00,
2014-01-03 08:15:00,13.5,10.4,30.00,South,172,8.0,8.0,87,0.00,,,0.00,Wunderground v.1.15,2014-01-03 14:15:00,
2014-01-03 08:25:00,13.8,10.9,30.00,SSW,194,7.0,16.0,88,0.00,,,0.00,Wunderground v.1.15,2014-01-03 14:25:00,
2014-01-03 08:35:00,14.1,11.2,30.00,SSE,167,7.0,16.0,88,0.00,,,0.00,Wunderground v.1.15,2014-01-03 14:35:00,
2014-01-03 08:40:00,14.2,11.3,29.99,SSW,211,7.0,7.0,88,0.00,,,0.00,Wunderground v.1.15,2014-01-03 14:40:00,
2014-01-03 08:45:00,14.4,11.5,29.99,SSW,211,7.0,16.0,88,0.00,,,0.00,Wunderground v.1.15,2014-01-03 14:45:00,
2014-01-03 08:55:00,14.9,12.0,29.99,SSE,153,6.0,16.0,88,0.00,,,0.00,Wunderground v.1.15,2014-01-03 14:55:00,
2014-01-03 09:00:00,15.1,12.2,29.98,ESE,102,6.0,6.0,88,0.00,,,0.00,Wunderground v.1.15,2014-01-03 15:00:00,
2014-01-03 09:05:00,15.3,12.4,29.98,SW,225,5.0,10.0,88,0.00,,,0.00,Wunderground v.1.15,2014-01-03 15:05:00,
2014-01-03 09:15:00,15.7,12.8,29.96,SW,220,6.0,16.0,88,0.00,,,0.00,Wunderground v.1.15,2014-01-03 15:15:00,
2014-01-03 09:25:00,16.2,13.3,29.96,SW,224,5.0,16.0,88,0.00,,,0.00,Wunderground v.1.15,2014-01-03 15:25:00,
2014-01-03 09:35:00,17.0,14.1,29.96,South,190,5.0,16.0,88,0.00,,,0.00,Wunderground v.1.15,2014-01-03 15:35:00,
2014-01-03 09:45:00,17.8,14.8,29.94,SW,231,6.0,8.0,88,0.00,,,0.00,Wunderground v.1.15,2014-01-03 15:45:00,
2014-01-03 09:50:00,18.2,15.2,29.94,SW,226,7.0,16.0,88,0.00,,,0.00,Wunderground v.1.15,2014-01-03 15:50:00,
2014-01-03 10:00:00,18.9,15.9,29.93,SSW,207,6.0,16.0,88,0.00,,,0.00,Wunderground v.1.15,2014-01-03 16:00:00,
2014-01-03 10:05:00,19.4,16.2,29.93,WSW,255,6.0,16.0,87,0.00,,,0.00,Wunderground v.1.15,2014-01-03 16:05:00,
2014-01-03 10:15:00,20.2,16.7,29.93,SW,219,6.0,14.0,86,0.00,,,0.00,Wunderground v.1.15,2014-01-03 16:15:00,
2014-01-03 10:25:00,21.1,17.6,29.92,WSW,255,6.0,16.0,86,0.00,,,0.00,Wunderground v.1.15,2014-01-03 16:25:00,
2014-01-03 10:35:00,21.9,18.1,29.91,SSW,213,6.0,16.0,85,0.00,,,0.00,Wunderground v.1.15,2014-01-03 16:35:00,
2014-01-03 10:45:00,22.5,18.4,29.90,South,179,6.0,16.0,84,0.00,,,0.00,Wunderground v.1.15,2014-01-03 16:45:00,
2014-01-03 10:50:00,23.1,19.0,29.90,WSW,246,6.0,6.0,84,0.00,,,0.00,Wunderground v.1.15,2014-01-03 16:50:00,
2014-01-03 11:00:00,23.8,19.4,29.89,WSW,256,6.0,6.0,83,0.00,,,0.00,Wunderground v.1.15,2014-01-03 17:00:00,
2014-01-03 11:05:00,24.1,19.7,29.88,SW,229,7.0,15.0,83,0.00,,,0.00,Wunderground v.1.15,2014-01-03 17:05:00,
2014-01-03 11:15:00,24.8,20.1,29.86,SSW,210,7.0,16.0,82,0.00,,,0.00,Wunderground v.1.15,2014-01-03 17:15:00,
2014-01-03 11:25:00,25.5,20.5,29.84,West,277,8.0,16.0,81,0.00,,,0.00,Wunderground v.1.15,2014-01-03 17:25:00,
2014-01-03 11:35:00,26.4,21.1,29.82,SW,219,7.0,16.0,80,0.00,,,0.00,Wunderground v.1.15,2014-01-03 17:35:00,
2014-01-03 11:45:00,27.3,21.6,29.81,SW,235,7.0,16.0,79,0.00,,,0.00,Wunderground v.1.15,2014-01-03 17:45:00,
2014-01-03 11:50:00,27.7,22.0,29.81,SSW,210,7.0,16.0,79,0.00,,,0.00,Wunderground v.1.15,2014-01-03 17:50:00,
2014-01-03 12:00:00,28.2,22.2,29.79,SW,231,9.0,11.0,78,0.00,,,0.00,Wunderground v.1.15,2014-01-03 18:00:00,
2014-01-03 12:10:00,28.8,22.5,29.79,North,4,8.0,8.0,77,0.00,,,0.00,Wunderground v.1.15,2014-01-03 18:10:00,
2014-01-03 12:15:00,29.2,22.9,29.78,SW,226,7.0,8.0,77,0.00,,,0.00,Wunderground v.1.15,2014-01-03 18:15:00,
2014-01-03 12:25:00,29.6,23.3,29.78,SSE,158,7.0,9.0,77,0.00,,,0.00,Wunderground v.1.15,2014-01-03 18:25:00,
2014-01-03 12:35:00,30.0,23.7,29.77,SSW,203,8.0,8.0,77,0.00,,,0.00,Wunderground v.1.15,2014-01-03 18:35:00,
2014-01-03 12:45:00,30.7,24.0,29.75,NNW,333,8.0,8.0,76,0.00,,,0.00,Wunderground v.1.15,2014-01-03 18:45:00,
2014-01-03 12:55:00,31.5,24.8,29.74,SW,214,8.0,12.0,76,0.00,,,0.00,Wunderground v.1.15,2014-01-03 18:55:00,
2014-01-03 13:00:00,32.0,25.0,29.74,WSW,245,8.0,8.0,75,0.00,,,0.00,Wunderground v.1.15,2014-01-03 19:00:00,
2014-01-03 13:05:00,32.6,25.6,29.73,SSE,165,8.0,11.0,75,0.00,,,0.00,Wunderground v.1.15,2014-01-03 19:05:00,
2014-01-03 13:15:00,32.5,25.1,29.72,South,191,11.0,21.0,74,0.00,,,0.00,Wunderground v.1.15,2014-01-03 19:15:00,
2014-01-03 13:25:00,32.6,25.6,29.71,South,187,9.0,13.0,75,0.00,,,0.00,Wunderground v.1.15,2014-01-03 19:25:00,
2014-01-03 13:35:00,33.2,26.1,29.70,SSW,207,7.0,21.0,75,0.00,,,0.00,Wunderground v.1.15,2014-01-03 19:35:00,
2014-01-03 13:45:00,33.5,26.1,29.69,South,177,7.0,11.0,74,0.00,,,0.00,Wunderground v.1.15,2014-01-03 19:45:00,
2014-01-03 13:55:00,34.3,26.9,29.68,WSW,248,5.0,7.0,74,0.00,,,0.00,Wunderground v.1.15,2014-01-03 19:55:00,
2014-01-03 14:00:00,34.8,27.0,29.68,South,172,5.0,21.0,73,0.00,,,0.00,Wunderground v.1.15,2014-01-03 20:00:00,
2014-01-03 14:05:00,35.0,27.2,29.68,SSE,158,6.0,21.0,73,0.00,,,0.00,Wunderground v.1.15,2014-01-03 20:05:00,
2014-01-03 14:15:00,35.7,27.9,29.67,SE,141,6.0,9.0,73,0.00,,,0.00,Wunderground v.1.15,2014-01-03 20:15:00,
2014-01-03 14:25:00,36.4,28.2,29.67,SSW,195,8.0,21.0,72,0.00,,,0.00,Wunderground v.1.15,2014-01-03 20:25:00,
2014-01-03 14:35:00,37.1,28.6,29.66,SW,226,9.0,21.0,71,0.00,,,0.00,Wunderground v.1.15,2014-01-03 20:35:00,
2014-01-03 14:45:00,38.1,29.5,29.66,SW,218,7.0,21.0,71,0.00,,,0.00,Wunderground v.1.15,2014-01-03 20:45:00,
2014-01-03 14:55:00,38.9,29.6,29.65,SE,127,6.0,12.0,69,0.00,,,0.00,Wunderground v.1.15,2014-01-03 20:55:00,
2014-01-03 15:00:00,39.2,29.9,29.64,South,175,6.0,6.0,69,0.00,,,0.00,Wunderground v.1.15,2014-01-03 21:00:00,
2014-01-03 15:05:00,39.4,30.1,29.64,SSW,193,7.0,7.0,69,0.00,,,0.00,Wunderground v.1.15,2014-01-03 21:05:00,
2014-01-03 15:15:00,39.3,30.0,29.63,SSE,166,7.0,21.0,69,0.00,,,0.00,Wunderground v.1.15,2014-01-03 21:15:00,
2014-01-03 15:25:00,39.5,29.8,29.63,WSW,255,7.0,21.0,68,0.00,,,0.00,Wunderground v.1.15,2014-01-03 21:25:00,
2014-01-03 15:35:00,39.6,29.9,29.63,SW,223,7.0,21.0,68,0.00,,,0.00,Wunderground v.1.15,2014-01-03 21:35:00,
2014-01-03 15:45:00,39.7,30.0,29.62,SSW,197,7.0,21.0,68,0.00,,,0.01,Wunderground v.1.15,2014-01-03 21:45:00,
2014-01-03 15:55:00,39.9,30.2,29.61,West,278,6.0,21.0,68,0.00,,,0.01,Wunderground v.1.15,2014-01-03 21:55:00,
2014-01-03 16:00:00,39.7,30.4,29.61,SSW,210,8.0,21.0,69,0.00,,,0.01,Wunderground v.1.15,2014-01-03 22:00:00,
2014-01-03 16:05:00,39.6,30.3,29.61,South,181,8.0,21.0,69,0.00,,,0.01,Wunderground v.1.15,2014-01-03 22:05:00,
2014-01-03 16:15:00,39.1,30.5,29.61,SSW,204,7.0,21.0,71,0.00,,,0.02,Wunderground v.1.15,2014-01-03 22:15:00,
2014-01-03 16:25:00,38.7,30.4,29.61,SSE,168,5.0,21.0,72,0.00,,,0.02,Wunderground v.1.15,2014-01-03 22:25:00,
2014-01-03 16:35:00,38.2,30.3,29.60,SSW,195,5.0,7.0,73,0.00,,,0.02,Wunderground v.1.15,2014-01-03 22:35:00,
2014-01-03 16:45:00,37.9,30.4,29.60,ESE,115,3.0,21.0,74,0.00,,,0.02,Wunderground v.1.15,2014-01-03 22:45:00,
2014-01-03 16:55:00,37.6,30.1,29.59,SE,138,3.0,21.0,74,0.00,,,0.02,Wunderground v.1.15,2014-01-03 22:55:00,
2014-01-03 17:05:00,37.3,30.1,29.59,SE,143,2.0,21.0,75,0.00,,,0.02,Wunderground v.1.15,2014-01-03 23:05:00,
2014-01-03 17:15:00,37.1,30.2,29.59,South,169,3.0,21.0,76,0.00,,,0.02,Wunderground v.1.15,2014-01-03 23:15:00,
2014-01-03 17:25:00,37.0,30.1,29.59,East,96,2.0,21.0,76,0.00,,,0.02,Wunderground v.1.15,2014-01-03 23:25:00,
2014-01-03 17:35:00,36.9,30.4,29.59,ESE,115,1.0,21.0,77,0.00,,,0.02,Wunderground v.1.15,2014-01-03 23:35:00,
2014-01-03 17:45:00,36.9,30.4,29.59,SE,145,2.0,21.0,77,0.00,,,0.02,Wunderground v.1.15,2014-01-03 23:45:00,
2014-01-03 17:55:00,37.1,30.6,29.58,SE,131,2.0,21.0,77,0.00,,,0.02,Wunderground v.1.15,2014-01-03 23:55:00,
2014-01-03 18:00:00,37.0,30.5,29.58,SE,145,2.0,2.0,77,0.00,,,0.02,Wunderground v.1.15,2014-01-04 00:00:00,
2014-01-03 18:10:00,37.1,30.6,29.58,SSE,157,2.0,3.0,77,0.00,,,0.02,Wunderground v.1.15,2014-01-04 00:10:00,
2014-01-03 18:20:00,37.1,30.6,29.57,ESE,123,2.0,2.0,77,0.00,,,0.02,Wunderground v.1.15,2014-01-04 00:20:00,
2014-01-03 18:25:00,37.2,30.7,29.57,South,181,2.0,2.0,77,0.00,,,0.02,Wunderground v.1.15,2014-01-04 00:25:00,
2014-01-03 18:35:00,37.5,30.9,29.57,SW,224,4.0,8.0,77,0.00,,,0.02,Wunderground v.1.15,2014-01-04 00:35:00,
2014-01-03 18:45:00,37.8,31.2,29.56,SW,222,5.0,5.0,77,0.00,,,0.02,Wunderground v.1.15,2014-01-04 00:45:00,
2014-01-03 18:55:00,38.0,31.1,29.57,SSE,157,7.0,10.0,76,0.00,,,0.02,Wunderground v.1.15,2014-01-04 00:55:00,
2014-01-03 19:05:00,38.0,31.1,29.57,South,191,4.0,9.0,76,0.00,,,0.02,Wunderground v.1.15,2014-01-04 01:05:00,
2014-01-03 19:15:00,38.1,31.2,29.57,WSW,255,4.0,9.0,76,0.00,,,0.02,Wunderground v.1.15,2014-01-04 01:15:00,
2014-01-03 19:25:00,38.2,31.3,29.58,SW,235,5.0,11.0,76,0.00,,,0.02,Wunderground v.1.15,2014-01-04 01:25:00,
2014-01-03 19:35:00,38.7,31.8,29.58,SW,217,5.0,9.0,76,0.00,,,0.02,Wunderground v.1.15,2014-01-04 01:35:00,
2014-01-03 19:40:00,38.9,31.6,29.58,SE,130,5.0,9.0,75,0.00,,,0.02,Wunderground v.1.15,2014-01-04 01:40:00,
2014-01-03 19:45:00,39.0,31.7,29.59,West,270,5.0,10.0,75,0.00,,,0.02,Wunderground v.1.15,2014-01-04 01:45:00,
2014-01-03 19:55:00,38.8,31.6,29.59,WNW,293,4.0,9.0,75,0.00,,,0.02,Wunderground v.1.15,2014-01-04 01:55:00,
2014-01-03 20:05:00,38.7,31.8,29.60,SW,229,3.0,9.0,76,0.00,,,0.02,Wunderground v.1.15,2014-01-04 02:05:00,
2014-01-03 20:15:00,38.4,31.5,29.60,WSW,243,2.0,9.0,76,0.00,,,0.02,Wunderground v.1.15,2014-01-04 02:15:00,
2014-01-03 20:25:00,38.3,31.4,29.60,NW,319,2.0,9.0,76,0.00,,,0.02,Wunderground v.1.15,2014-01-04 02:25:00,
2014-01-03 20:35:00,38.4,31.5,29.61,West,277,1.0,9.0,76,0.00,,,0.02,Wunderground v.1.15,2014-01-04 02:35:00,
2014-01-03 20:45:00,38.6,31.4,29.61,WNW,283,1.0,9.0,75,0.00,,,0.02,Wunderground v.1.15,2014-01-04 02:45:00,
2014-01-03 20:55:00,38.8,31.6,29.61,WNW,298,1.0,9.0,75,0.00,,,0.02,Wunderground v.1.15,2014-01-04 02:55:00,
2014-01-03 21:00:00,38.9,31.6,29.62,WNW,282,1.0,9.0,75,0.00,,,0.02,Wunderground v.1.15,2014-01-04 03:00:00,
2014-01-03 21:10:00,38.8,31.6,29.62,WNW,295,0.0,9.0,75,0.00,,,0.02,Wunderground v.1.15,2014-01-04 03:10:00,
2014-01-03 21:15:00,38.9,31.6,29.63,West,278,0.0,9.0,75,0.00,,,0.02,Wunderground v.1.15,2014-01-04 03:15:00,
2014-01-03 21:25:00,39.2,31.6,29.62,WNW,284,1.0,9.0,74,0.00,,,0.02,Wunderground v.1.15,2014-01-04 03:25:00,
2014-01-03 21:35:00,39.1,31.5,29.63,West,277,1.0,9.0,74,0.00,,,0.02,Wunderground v.1.15,2014-01-04 03:35:00,
2014-01-03 21:45:00,38.8,31.6,29.62,NW,314,1.0,9.0,75,0.00,,,0.02,Wunderground v.1.15,2014-01-04 03:45:00,
2014-01-03 21:55:00,39.3,31.7,29.63,West,278,1.0,9.0,74,0.00,,,0.02,Wunderground v.1.15,2014-01-04 03:55:00,
2014-01-03 22:05:00,38.8,31.6,29.63,SSW,207,0.0,9.0,75,0.00,,,0.02,Wunderground v.1.15,2014-01-04 04:05:00,
2014-01-03 22:15:00,37.8,30.9,29.63,SSW,208,0.0,9.0,76,0.00,,,0.02,Wunderground v.1.15,2014-01-04 04:15:00,
2014-01-03 22:25:00,37.6,31.0,29.64,West,268,0.0,9.0,77,0.00,,,0.02,Wunderground v.1.15,2014-01-04 04:25:00,
2014-01-03 22:30:00,37.5,31.3,29.64,West,269,0.0,9.0,78,0.00,,,0.02,Wunderground v.1.15,2014-01-04 04:30:00,
2014-01-03 22:40:00,37.0,30.8,29.65,West,269,0.0,9.0,78,0.00,,,0.02,Wunderground v.1.15,2014-01-04 04:40:00,
2014-01-03 22:50:00,37.5,32.2,29.66,WSW,238,0.0,9.0,81,0.00,,,0.02,Wunderground v.1.15,2014-01-04 04:50:00,
2014-01-03 22:55:00,37.8,32.5,29.66,West,262,0.0,9.0,81,0.00,,,0.02,Wunderground v.1.15,2014-01-04 04:55:00,
2014-01-03 23:00:00,38.3,33.0,29.66,West,278,0.0,9.0,81,0.00,,,0.02,Wunderground v.1.15,2014-01-04 05:00:00,
2014-01-03 23:05:00,38.5,33.2,29.66,West,278,0.0,9.0,81,0.00,,,0.02,Wunderground v.1.15,2014-01-04 05:05:00,
2014-01-03 23:10:00,38.8,33.8,29.66,NW,315,0.0,9.0,82,0.00,,,0.02,Wunderground v.1.15,2014-01-04 05:10:00,
2014-01-03 23:15:00,39.6,34.9,29.66,WNW,287,0.0,9.0,83,0.00,,,0.02,Wunderground v.1.15,2014-01-04 05:15:00,
2014-01-03 23:25:00,39.6,33.9,29.67,SW,235,0.0,9.0,80,0.00,,,0.02,Wunderground v.1.15,2014-01-04 05:25:00,
2014-01-03 23:35:00,39.2,34.2,29.67,SW,233,0.0,9.0,82,0.00,,,0.02,Wunderground v.1.15,2014-01-04 05:35:00,
2014-01-03 23:40:00,39.2,34.2,29.67,SW,235,0.0,9.0,82,0.00,,,0.02,Wunderground v.1.15,2014-01-04 05:40:00,
2014-01-03 23:50:00,39.9,35.2,29.69,West,278,0.0,9.0,83,0.00,,,0.02,Wunderground v.1.15,2014-01-04 05:50:00,